Archival Weather

Kayes/Dag-Dag

Kayes/Dag-Dag, Mali (GAKD)

Report from: Thursday, February 22, 2024 1:00 AM UTC
Current time: Wednesday, April 24, 2024 7:56 PM UTC

Current weather – Weather history – Daily summaries
Weather forecast

Present weatherDust
Temperature27.0°C (80.6°F)
Heat index26.4°C (79.4°F)
Dew point2.0°C (35.6°F)
Winds 8 kts (4.1 m/s, 9.2 mph) East (80°)
Visibility3.1 mi. (5 km)
Altimeter29.91 in.Hg (1013 mB)
Relative humidity20 %
Density altitude1,502 ft. (458 m)
Flight conditions Marginal Visual Meteorological Conditions
Raw dataGAKD 220100Z 08008KT 5000 DU NSC 27/02 Q1013
An error has occurred. This application may no longer respond until reloaded. Reload 🗙